createdAt,value
2023-01-17T00:00:49.030Z,0.00
2023-01-17T00:01:48.418Z,0.02
2023-01-17T00:02:48.743Z,0.00
2023-01-17T00:03:48.257Z,0.00
2023-01-17T00:04:48.613Z,0.02
2023-01-17T00:05:48.861Z,0.02
2023-01-17T00:06:48.286Z,0.01
2023-01-17T00:07:47.684Z,0.06
2023-01-17T00:08:48.062Z,0.01
2023-01-17T00:09:49.406Z,0.01
2023-01-17T00:10:48.811Z,0.02
2023-01-17T00:11:49.176Z,0.00
2023-01-17T00:12:47.559Z,0.02
2023-01-17T00:13:48.929Z,0.01
2023-01-17T00:14:49.287Z,0.01
2023-01-17T00:15:48.664Z,0.02
2023-01-17T00:16:49.059Z,0.00
2023-01-17T00:17:48.480Z,0.02
2023-01-17T00:18:48.766Z,0.00
2023-01-17T00:19:49.165Z,0.00
2023-01-17T00:20:47.597Z,0.02
2023-01-17T00:21:48.925Z,0.02
2023-01-17T00:22:49.872Z,0.00
2023-01-17T00:23:48.675Z,0.00
2023-01-17T00:24:49.067Z,0.02
2023-01-17T00:25:48.456Z,0.02
2023-01-17T00:27:48.335Z,0.02
2023-01-17T00:29:48.066Z,0.04
2023-01-17T00:30:47.383Z,0.02
2023-01-17T00:31:48.766Z,0.00
2023-01-17T00:32:49.090Z,0.02
2023-01-17T00:33:48.426Z,0.00
2023-01-17T00:34:49.764Z,0.00
2023-01-17T00:35:48.228Z,0.02
2023-01-17T00:36:47.598Z,0.00
2023-01-17T00:37:48.963Z,0.02
2023-01-17T00:38:48.306Z,0.02
2023-01-17T00:39:48.671Z,0.00
2023-01-17T00:40:49.064Z,0.00
2023-01-17T00:41:48.423Z,0.02
2023-01-17T00:42:48.774Z,0.00
2023-01-17T00:43:49.181Z,0.00
2023-01-17T00:44:48.251Z,0.02
2023-01-17T00:45:48.633Z,0.00
2023-01-17T00:46:49.359Z,0.06
2023-01-17T00:47:48.346Z,0.01
2023-01-17T00:49:48.067Z,0.00
2023-01-17T00:50:48.440Z,0.00
2023-01-17T00:51:49.060Z,0.02
2023-01-17T00:52:48.185Z,0.02
2023-01-17T00:53:48.551Z,0.01
2023-01-17T00:54:48.951Z,0.00
2023-01-17T00:55:48.336Z,0.02
2023-01-17T00:56:47.705Z,0.00
2023-01-17T00:57:47.059Z,0.01
2023-01-17T00:58:48.415Z,0.00
2023-01-17T00:59:48.774Z,0.01
2023-01-17T01:00:48.162Z,0.00
2023-01-17T01:01:48.693Z,0.02
2023-01-17T01:02:49.000Z,0.01
2023-01-17T01:03:48.248Z,0.00
2023-01-17T01:04:48.616Z,0.02
2023-01-17T01:05:47.046Z,0.01
2023-01-17T01:06:48.356Z,0.01
2023-01-17T01:07:48.730Z,0.00
2023-01-17T01:08:48.036Z,0.02
2023-01-17T01:09:48.962Z,0.01
2023-01-17T01:10:47.806Z,0.06
2023-01-17T01:11:47.258Z,0.01
2023-01-17T01:12:47.644Z,0.01
2023-01-17T01:13:46.991Z,0.02
2023-01-17T01:14:47.421Z,0.02
2023-01-17T01:15:47.845Z,0.02
2023-01-17T01:16:47.149Z,0.02
2023-01-17T01:17:47.495Z,0.02
2023-01-17T01:18:46.851Z,0.00
2023-01-17T01:19:47.263Z,0.01
2023-01-17T01:20:47.797Z,0.02
2023-01-17T01:21:47.008Z,0.00
2023-01-17T01:22:47.416Z,0.02
2023-01-17T01:23:46.760Z,0.02
2023-01-17T01:24:47.144Z,0.00
2023-01-17T01:25:47.569Z,0.02
2023-01-17T01:26:46.970Z,0.00
2023-01-17T01:27:47.269Z,0.02
2023-01-17T01:28:46.680Z,0.01
2023-01-17T01:29:47.981Z,0.00
2023-01-17T01:30:48.364Z,0.00
2023-01-17T01:31:47.768Z,0.02
2023-01-17T01:32:47.182Z,0.06
2023-01-17T01:33:47.540Z,0.02
2023-01-17T01:34:47.838Z,0.02
2023-01-17T01:35:47.313Z,0.01
2023-01-17T01:36:46.660Z,0.01
2023-01-17T01:37:47.057Z,0.01
2023-01-17T01:38:48.484Z,0.00
2023-01-17T01:39:46.775Z,0.02
2023-01-17T01:40:48.135Z,0.02
2023-01-17T01:41:46.510Z,0.02
2023-01-17T01:42:47.851Z,0.02
2023-01-17T01:43:47.319Z,0.02
2023-01-17T01:44:46.710Z,0.00
2023-01-17T01:45:47.151Z,0.00
2023-01-17T01:46:46.415Z,0.01
2023-01-17T01:47:47.760Z,0.02
2023-01-17T01:48:48.152Z,0.02
2023-01-17T01:49:47.494Z,0.02
2023-01-17T01:50:48.246Z,0.02
2023-01-17T01:51:46.321Z,0.00
2023-01-17T01:52:47.629Z,0.00
2023-01-17T01:53:47.075Z,0.02
2023-01-17T01:54:46.420Z,0.02
2023-01-17T01:55:47.755Z,0.02
2023-01-17T01:56:48.192Z,0.02
2023-01-17T01:57:47.496Z,0.01
2023-01-17T01:58:46.937Z,0.00
2023-01-17T01:59:47.219Z,0.01
2023-01-17T02:00:47.728Z,0.00
2023-01-17T02:01:47.183Z,0.01
2023-01-17T02:02:46.601Z,0.00
2023-01-17T02:03:46.843Z,0.02
2023-01-17T02:04:46.117Z,0.02
2023-01-17T02:05:46.512Z,0.02
2023-01-17T02:06:46.899Z,0.02
2023-01-17T02:07:47.207Z,0.01
2023-01-17T02:08:47.690Z,0.01
2023-01-17T02:09:47.960Z,0.00
2023-01-17T02:10:46.380Z,0.02
2023-01-17T02:11:47.686Z,0.02
2023-01-17T02:12:46.139Z,0.01
2023-01-17T02:13:46.498Z,0.00
2023-01-17T02:14:46.939Z,0.00
2023-01-17T02:15:47.155Z,0.01
2023-01-17T02:16:46.702Z,0.00
2023-01-17T02:17:47.926Z,0.04
2023-01-17T02:18:47.284Z,0.02
2023-01-17T02:19:47.676Z,0.00
2023-01-17T02:20:46.135Z,0.01
2023-01-17T02:21:47.434Z,0.00
2023-01-17T02:22:47.785Z,0.00
2023-01-17T02:23:47.161Z,0.06
2023-01-17T02:24:46.571Z,0.00
2023-01-17T02:25:45.931Z,0.02
2023-01-17T02:26:47.363Z,0.01
2023-01-17T02:27:46.745Z,0.06
2023-01-17T02:28:46.134Z,0.02
2023-01-17T02:29:47.463Z,0.02
2023-01-17T02:30:45.860Z,0.00
2023-01-17T02:31:47.193Z,0.01
2023-01-17T02:32:47.666Z,0.00
2023-01-17T02:33:45.975Z,0.06
2023-01-17T02:34:47.327Z,0.02
2023-01-17T02:35:45.730Z,0.02
2023-01-17T02:36:46.112Z,0.02
2023-01-17T02:37:46.526Z,0.01
2023-01-17T02:38:47.160Z,0.00
2023-01-17T02:39:46.296Z,0.02
2023-01-17T02:40:46.684Z,0.02
2023-01-17T02:41:46.081Z,0.01
2023-01-17T02:42:47.404Z,0.00
2023-01-17T02:43:46.737Z,0.02
2023-01-17T02:44:47.226Z,0.02
2023-01-17T02:45:46.614Z,0.02
2023-01-17T02:46:46.019Z,0.02
2023-01-17T02:47:47.303Z,0.02
2023-01-17T02:48:45.669Z,0.02
2023-01-17T02:49:47.015Z,0.00
2023-01-17T02:50:46.485Z,0.02
2023-01-17T02:51:45.795Z,0.02
2023-01-17T02:52:47.169Z,0.02
2023-01-17T02:53:45.666Z,0.00
2023-01-17T02:54:46.041Z,0.02
2023-01-17T02:55:47.483Z,0.02
2023-01-17T02:56:45.906Z,0.06
2023-01-17T02:57:46.366Z,0.02
2023-01-17T02:58:45.760Z,0.00
2023-01-17T03:00:46.625Z,0.00
2023-01-17T03:01:46.167Z,0.01
2023-01-17T03:02:46.363Z,0.00
2023-01-17T03:03:46.745Z,0.00
2023-01-17T03:04:46.205Z,0.00
2023-01-17T03:05:46.516Z,0.02
2023-01-17T03:06:46.033Z,0.00
2023-01-17T03:07:45.517Z,0.06
2023-01-17T03:08:46.792Z,0.06
2023-01-17T03:09:47.231Z,0.00
2023-01-17T03:10:46.681Z,0.02
2023-01-17T03:11:46.121Z,0.00
2023-01-17T03:12:45.501Z,0.00
2023-01-17T03:13:45.366Z,0.02
2023-01-17T03:14:45.810Z,0.01
2023-01-17T03:15:46.250Z,0.01
2023-01-17T03:16:45.658Z,0.02
2023-01-17T03:17:47.018Z,0.00
2023-01-17T03:18:46.425Z,0.02
2023-01-17T03:19:46.872Z,0.01
2023-01-17T03:20:45.251Z,0.02
2023-01-17T03:21:46.637Z,0.02
2023-01-17T03:22:47.091Z,0.02
2023-01-17T03:23:46.455Z,0.00
2023-01-17T03:24:45.931Z,0.01
2023-01-17T03:25:46.249Z,0.02
2023-01-17T03:26:45.765Z,0.02
2023-01-17T03:28:46.027Z,0.02
2023-01-17T03:29:46.960Z,0.02
2023-01-17T03:30:46.351Z,0.02
2023-01-17T03:31:45.815Z,0.02
2023-01-17T03:33:46.527Z,0.06
2023-01-17T03:34:46.060Z,0.02
2023-01-17T03:35:45.802Z,0.00
2023-01-17T03:36:45.814Z,0.02
2023-01-17T03:37:45.181Z,0.02
2023-01-17T03:38:46.559Z,0.02
2023-01-17T03:39:45.004Z,0.00
2023-01-17T03:40:45.722Z,0.00
2023-01-17T03:41:46.765Z,0.00
2023-01-17T03:42:44.990Z,0.01
2023-01-17T03:43:46.376Z,0.00
2023-01-17T03:44:46.185Z,0.06
2023-01-17T03:45:45.282Z,0.00
2023-01-17T03:46:45.680Z,0.02
2023-01-17T03:47:45.039Z,0.02
2023-01-17T03:48:46.400Z,0.02
2023-01-17T03:49:44.867Z,0.02
2023-01-17T03:50:45.280Z,0.02
2023-01-17T03:51:45.715Z,0.02
2023-01-17T03:52:45.068Z,0.00
2023-01-17T03:53:45.520Z,0.02
2023-01-17T03:54:44.869Z,0.00
2023-01-17T03:55:46.237Z,0.02
2023-01-17T03:56:44.690Z,0.00
2023-01-17T03:57:46.374Z,0.02
2023-01-17T03:58:46.485Z,0.01
2023-01-17T03:59:44.899Z,0.00
2023-01-17T04:00:46.324Z,0.02
2023-01-17T04:01:44.818Z,0.02
2023-01-17T04:02:46.164Z,0.01
2023-01-17T04:03:46.560Z,0.02
2023-01-17T04:04:44.978Z,0.01
2023-01-17T04:05:45.381Z,0.02
2023-01-17T04:06:44.784Z,0.00
2023-01-17T04:07:46.146Z,0.00
2023-01-17T04:08:44.582Z,0.01
2023-01-17T04:09:45.081Z,0.02
2023-01-17T04:10:45.467Z,0.02
2023-01-17T04:11:44.890Z,0.00
2023-01-17T04:12:46.246Z,0.02
2023-01-17T04:13:44.685Z,0.02
2023-01-17T04:14:46.056Z,0.02
2023-01-17T04:15:45.505Z,0.01
2023-01-17T04:16:44.932Z,0.02
2023-01-17T04:17:46.205Z,0.02
2023-01-17T04:18:44.623Z,0.02
2023-01-17T04:19:45.015Z,0.01
2023-01-17T04:20:44.359Z,0.06
2023-01-17T04:21:44.760Z,0.02
2023-01-17T04:22:46.156Z,0.02
2023-01-17T04:23:44.549Z,0.01
2023-01-17T04:24:44.964Z,0.02
2023-01-17T04:25:44.331Z,0.01
2023-01-17T04:26:44.728Z,0.02
2023-01-17T04:27:45.121Z,0.01
2023-01-17T04:28:44.515Z,0.01
2023-01-17T04:29:46.772Z,0.02
2023-01-17T04:30:44.351Z,0.00
2023-01-17T04:31:44.726Z,0.02
2023-01-17T04:32:45.090Z,0.05
2023-01-17T04:33:44.433Z,0.00
2023-01-17T04:34:44.845Z,0.00
2023-01-17T04:35:44.219Z,0.02
2023-01-17T04:36:44.340Z,0.00
2023-01-17T04:37:44.699Z,0.02
2023-01-17T04:38:45.139Z,0.02
2023-01-17T04:39:44.495Z,0.01
2023-01-17T04:40:44.864Z,0.01
2023-01-17T04:41:44.233Z,0.00
2023-01-17T04:42:45.091Z,0.00
2023-01-17T04:43:45.047Z,0.00
2023-01-17T04:44:44.418Z,0.01
2023-01-17T04:45:44.924Z,0.02
2023-01-17T04:46:44.212Z,0.02
2023-01-17T04:47:44.662Z,0.02
2023-01-17T04:48:45.055Z,0.05
2023-01-17T04:49:44.379Z,0.02
2023-01-17T04:50:44.786Z,0.00
2023-01-17T04:51:44.181Z,0.01
2023-01-17T04:52:44.531Z,0.02
2023-01-17T04:53:44.940Z,0.01
2023-01-17T04:54:44.330Z,0.01
2023-01-17T04:55:44.698Z,0.02
2023-01-17T04:56:44.057Z,0.00
2023-01-17T04:57:44.475Z,0.02
2023-01-17T04:59:45.161Z,0.02
2023-01-17T05:00:45.566Z,0.06
2023-01-17T05:01:43.987Z,0.02
2023-01-17T05:02:44.438Z,0.00
2023-01-17T05:03:44.780Z,0.01
2023-01-17T05:04:44.151Z,0.01
2023-01-17T05:05:44.584Z,0.02
2023-01-17T05:06:44.033Z,0.01
2023-01-17T05:07:44.379Z,0.00
2023-01-17T05:08:44.776Z,0.00
2023-01-17T05:09:44.145Z,0.01
2023-01-17T05:10:44.586Z,0.01
2023-01-17T05:11:43.989Z,0.00
2023-01-17T05:12:44.384Z,0.00
2023-01-17T05:13:44.786Z,0.01
2023-01-17T05:14:44.159Z,0.02
2023-01-17T05:15:44.604Z,0.02
2023-01-17T05:16:43.940Z,0.02
2023-01-17T05:17:44.449Z,0.02
2023-01-17T05:18:43.726Z,0.06
2023-01-17T05:19:44.129Z,0.02
2023-01-17T05:20:44.522Z,0.02
2023-01-17T05:21:43.872Z,0.00
2023-01-17T05:22:45.223Z,0.01
2023-01-17T05:23:43.669Z,0.01
2023-01-17T05:24:44.033Z,0.00
2023-01-17T05:25:44.584Z,0.02
2023-01-17T05:26:43.755Z,0.02
2023-01-17T05:27:44.166Z,0.01
2023-01-17T05:28:43.559Z,0.02
2023-01-17T05:30:44.380Z,0.02
2023-01-17T05:31:44.760Z,0.02
2023-01-17T05:32:45.337Z,0.00
2023-01-17T05:33:44.587Z,0.01
2023-01-17T05:34:43.931Z,0.00
2023-01-17T05:35:44.464Z,0.00
2023-01-17T05:36:43.720Z,0.06
2023-01-17T05:37:44.153Z,0.06
2023-01-17T05:38:43.511Z,0.01
2023-01-17T05:39:43.900Z,0.02
2023-01-17T05:40:44.339Z,0.01
2023-01-17T05:41:43.749Z,0.02
2023-01-17T05:42:45.069Z,0.01
2023-01-17T05:43:43.460Z,0.00
2023-01-17T05:44:43.936Z,0.02
2023-01-17T05:45:44.331Z,0.02
2023-01-17T05:46:43.736Z,0.00
2023-01-17T05:47:44.214Z,0.01
2023-01-17T05:48:43.554Z,0.02
2023-01-17T05:49:45.957Z,0.00
2023-01-17T05:50:43.343Z,0.05
2023-01-17T05:51:43.780Z,0.02
2023-01-17T05:52:43.180Z,0.02
2023-01-17T05:53:43.644Z,0.01
2023-01-17T05:54:44.025Z,0.05
2023-01-17T05:55:43.416Z,0.01
2023-01-17T05:56:43.836Z,0.03
2023-01-17T05:57:43.221Z,0.03
2023-01-17T05:58:43.615Z,0.11
2023-01-17T05:59:44.067Z,0.01
2023-01-17T06:00:43.387Z,0.03
2023-01-17T06:01:43.845Z,0.01
2023-01-17T06:02:43.224Z,0.01
2023-01-17T06:03:43.609Z,0.03
2023-01-17T06:04:44.046Z,0.03
2023-01-17T06:05:43.468Z,0.01
2023-01-17T06:06:43.831Z,0.03
2023-01-17T06:07:43.200Z,0.03
2023-01-17T06:08:43.629Z,0.01
2023-01-17T06:09:43.019Z,0.03
2023-01-17T06:10:43.419Z,0.00
2023-01-17T06:11:43.937Z,0.00
2023-01-17T06:12:44.180Z,0.02
2023-01-17T06:13:43.631Z,0.02
2023-01-17T06:14:43.010Z,0.01
2023-01-17T06:15:43.516Z,0.01
2023-01-17T06:16:43.871Z,0.01
2023-01-17T06:17:43.294Z,0.01
2023-01-17T06:18:43.660Z,0.02
2023-01-17T06:19:43.036Z,0.02
2023-01-17T06:20:43.413Z,0.02
2023-01-17T06:21:43.784Z,0.02
2023-01-17T06:22:43.175Z,0.02
2023-01-17T06:23:43.871Z,0.03
2023-01-17T06:24:42.920Z,0.02
2023-01-17T06:25:43.338Z,0.01
2023-01-17T06:26:43.768Z,0.02
2023-01-17T06:27:43.108Z,0.02
2023-01-17T06:28:43.496Z,0.07
2023-01-17T06:29:43.900Z,0.01
2023-01-17T06:30:43.309Z,0.08
2023-01-17T06:31:43.697Z,0.01
2023-01-17T06:32:43.080Z,0.01
2023-01-17T06:33:43.446Z,0.01
2023-01-17T06:34:43.762Z,0.01
2023-01-17T06:35:43.372Z,0.11
2023-01-17T06:36:43.616Z,0.02
2023-01-17T06:37:42.990Z,0.02
2023-01-17T06:38:43.428Z,0.02
2023-01-17T06:39:42.771Z,0.03
2023-01-17T06:40:43.236Z,0.03
2023-01-17T06:41:42.559Z,0.03
2023-01-17T06:42:42.947Z,0.04
2023-01-17T06:43:44.355Z,0.03
2023-01-17T06:44:42.789Z,0.04
2023-01-17T06:45:43.240Z,0.04
2023-01-17T06:46:42.671Z,0.06
2023-01-17T06:47:42.978Z,0.18
2023-01-17T06:48:43.399Z,0.07
2023-01-17T06:49:42.741Z,0.10
2023-01-17T06:50:43.245Z,0.10
2023-01-17T06:51:43.737Z,0.12
2023-01-17T06:52:42.946Z,0.15
2023-01-17T06:53:43.353Z,0.17
2023-01-17T06:54:42.685Z,0.20
2023-01-17T06:55:43.065Z,0.24
2023-01-17T06:56:42.441Z,0.29
2023-01-17T06:57:42.869Z,0.35
2023-01-17T06:58:43.255Z,0.40
2023-01-17T06:59:42.595Z,0.48
2023-01-17T07:00:43.063Z,0.60
2023-01-17T07:01:42.474Z,0.71
2023-01-17T07:02:42.809Z,0.83
2023-01-17T07:03:43.249Z,1.00
2023-01-17T07:04:42.535Z,1.15
2023-01-17T07:05:42.937Z,1.33
2023-01-17T07:06:42.309Z,1.59
2023-01-17T07:07:42.704Z,1.87
2023-01-17T07:08:43.367Z,2.24
2023-01-17T07:09:42.460Z,2.61
2023-01-17T07:10:42.887Z,2.99
2023-01-17T07:11:42.286Z,3.41
2023-01-17T07:12:42.690Z,3.89
2023-01-17T07:13:43.159Z,4.43
2023-01-17T07:14:42.500Z,4.98
2023-01-17T07:15:42.934Z,5.49
2023-01-17T07:16:42.309Z,5.93
2023-01-17T07:17:42.705Z,6.36
2023-01-17T07:18:42.096Z,6.80
2023-01-17T07:19:42.601Z,7.34
2023-01-17T07:20:42.916Z,7.91
2023-01-17T07:21:42.275Z,8.54
2023-01-17T07:22:42.700Z,9.12
2023-01-17T07:23:42.076Z,9.70
2023-01-17T07:24:42.481Z,10.32
2023-01-17T07:25:43.092Z,11.74
2023-01-17T07:26:42.270Z,13.85
2023-01-17T07:27:42.679Z,16.45
2023-01-17T07:28:42.015Z,18.66
2023-01-17T07:29:43.391Z,20.36
2023-01-17T07:30:43.845Z,21.63
2023-01-17T07:31:42.376Z,22.89
2023-01-17T07:32:43.669Z,24.36
2023-01-17T07:33:42.086Z,26.00
2023-01-17T07:34:43.494Z,27.91
2023-01-17T07:35:41.870Z,29.93
2023-01-17T07:36:42.303Z,32.12
2023-01-17T07:37:43.092Z,34.44
2023-01-17T07:38:42.101Z,36.65
2023-01-17T07:39:42.525Z,38.84
2023-01-17T07:40:42.517Z,40.04
2023-01-17T07:41:42.332Z,39.95
2023-01-17T07:42:42.759Z,40.78
2023-01-17T07:43:42.185Z,46.47
2023-01-17T07:44:42.535Z,51.80
2023-01-17T07:45:41.897Z,56.91
2023-01-17T07:46:42.343Z,59.37
2023-01-17T07:47:42.675Z,56.83
2023-01-17T07:48:42.116Z,57.06
2023-01-17T07:49:42.544Z,58.31
2023-01-17T07:50:45.851Z,61.64
2023-01-17T07:51:42.205Z,65.42
2023-01-17T07:52:42.620Z,70.93
2023-01-17T07:53:41.970Z,82.17
2023-01-17T07:54:42.358Z,97.15
2023-01-17T07:55:42.122Z,107.21
2023-01-17T07:56:42.065Z,111.40
2023-01-17T07:57:42.485Z,111.64
2023-01-17T07:58:41.849Z,120.33
2023-01-17T07:59:42.251Z,127.62
2023-01-17T08:00:41.646Z,129.82
2023-01-17T08:01:42.200Z,133.26
2023-01-17T08:02:42.365Z,133.36
2023-01-17T08:03:41.812Z,176.47
2023-01-17T08:04:42.132Z,195.24
2023-01-17T08:05:41.479Z,202.30
2023-01-17T08:06:41.895Z,211.94
2023-01-17T08:07:42.290Z,220.61
2023-01-17T08:08:41.608Z,227.14
2023-01-17T08:09:43.078Z,227.04
2023-01-17T08:10:42.401Z,226.31
2023-01-17T08:11:42.731Z,230.31
2023-01-17T08:12:42.149Z,250.73
2023-01-17T08:13:41.616Z,271.84
2023-01-17T08:14:41.911Z,283.03
2023-01-17T08:15:42.294Z,290.27
2023-01-17T08:16:41.726Z,295.08
2023-01-17T08:17:42.055Z,296.30
2023-01-17T08:18:41.405Z,278.17
2023-01-17T08:19:41.968Z,240.74
2023-01-17T08:20:42.280Z,281.35
2023-01-17T08:21:42.519Z,287.98
2023-01-17T08:22:41.975Z,292.17
2023-01-17T08:23:41.318Z,301.39
2023-01-17T08:24:41.701Z,293.91
2023-01-17T08:25:42.155Z,298.05
2023-01-17T08:26:41.454Z,310.91
2023-01-17T08:27:41.851Z,317.73
2023-01-17T08:28:41.228Z,334.32
2023-01-17T08:29:41.577Z,336.27
2023-01-17T08:30:41.984Z,357.11
2023-01-17T08:31:41.397Z,358.20
2023-01-17T08:32:41.741Z,364.89
2023-01-17T08:33:41.121Z,366.73
2023-01-17T08:34:41.475Z,362.97
2023-01-17T08:35:41.925Z,386.89
2023-01-17T08:36:41.246Z,393.88
2023-01-17T08:37:41.790Z,400.19
2023-01-17T08:38:41.028Z,400.80
2023-01-17T08:39:42.451Z,399.85
2023-01-17T08:40:43.139Z,397.04
2023-01-17T08:41:41.131Z,375.93
2023-01-17T08:42:41.532Z,400.95
2023-01-17T08:43:42.234Z,421.76
2023-01-17T08:44:41.255Z,421.79
2023-01-17T08:45:41.657Z,412.92
2023-01-17T08:46:41.002Z,400.87
2023-01-17T08:47:41.334Z,401.33
2023-01-17T08:48:41.704Z,355.08
2023-01-17T08:49:41.119Z,278.27
2023-01-17T08:50:42.392Z,265.24
2023-01-17T08:51:41.872Z,295.60
2023-01-17T08:52:41.219Z,308.63
2023-01-17T08:53:41.627Z,307.09
2023-01-17T08:54:41.014Z,297.26
2023-01-17T08:55:41.400Z,275.62
2023-01-17T08:56:41.775Z,246.53
2023-01-17T08:57:41.156Z,260.94
2023-01-17T08:58:41.531Z,266.31
2023-01-17T08:59:41.840Z,307.36
2023-01-17T09:00:41.370Z,265.52
2023-01-17T09:01:42.258Z,260.14
2023-01-17T09:02:41.047Z,260.08
2023-01-17T09:03:41.476Z,260.97
2023-01-17T09:04:40.867Z,266.20
2023-01-17T09:05:41.236Z,273.68
2023-01-17T09:06:42.593Z,334.26
2023-01-17T09:07:41.065Z,354.12
2023-01-17T09:08:41.387Z,280.13
2023-01-17T09:09:40.720Z,275.37
2023-01-17T09:10:41.125Z,270.40
2023-01-17T09:11:41.523Z,250.81
2023-01-17T09:12:40.898Z,260.56
2023-01-17T09:13:41.383Z,265.95
2023-01-17T09:14:41.565Z,274.16
2023-01-17T09:15:40.980Z,277.55
2023-01-17T09:16:41.415Z,279.41
2023-01-17T09:17:40.710Z,278.03
2023-01-17T09:18:41.121Z,268.68
2023-01-17T09:19:42.349Z,286.71
2023-01-17T09:20:40.822Z,292.13
2023-01-17T09:21:41.246Z,299.87
2023-01-17T09:22:40.540Z,299.83
2023-01-17T09:23:40.959Z,292.40
2023-01-17T09:24:40.575Z,396.46
2023-01-17T09:25:40.952Z,493.89
2023-01-17T09:26:41.251Z,501.20
2023-01-17T09:27:40.585Z,507.60
2023-01-17T09:28:41.018Z,505.21
2023-01-17T09:29:41.322Z,506.74
2023-01-17T09:30:40.665Z,506.72
2023-01-17T09:31:41.107Z,508.08
2023-01-17T09:32:40.351Z,509.11
2023-01-17T09:33:40.726Z,510.48
2023-01-17T09:34:41.095Z,512.40
2023-01-17T09:35:40.392Z,515.31
2023-01-17T09:36:40.787Z,518.23
2023-01-17T09:37:41.146Z,522.81
2023-01-17T09:38:40.499Z,527.45
2023-01-17T09:39:41.897Z,533.05
2023-01-17T09:40:41.150Z,537.02
2023-01-17T09:41:40.490Z,540.32
2023-01-17T09:42:40.869Z,544.34
2023-01-17T09:43:41.213Z,546.63
2023-01-17T09:44:40.503Z,549.09
2023-01-17T09:45:40.874Z,552.51
2023-01-17T09:46:41.169Z,558.78
2023-01-17T09:47:41.450Z,563.76
2023-01-17T09:48:40.831Z,569.19
2023-01-17T09:49:40.575Z,573.59
2023-01-17T09:50:42.185Z,576.99
2023-01-17T09:51:40.860Z,581.61
2023-01-17T09:52:40.194Z,585.76
2023-01-17T09:53:40.529Z,589.68
2023-01-17T09:54:44.962Z,593.44
2023-01-17T09:55:40.185Z,597.33
2023-01-17T09:56:40.585Z,602.26
2023-01-17T09:57:40.976Z,606.82
2023-01-17T09:58:40.293Z,610.76
2023-01-17T09:59:42.833Z,615.86
2023-01-17T10:00:40.047Z,623.32
2023-01-17T10:01:40.612Z,631.12
2023-01-17T10:02:40.956Z,636.61
2023-01-17T10:03:40.271Z,642.17
2023-01-17T10:04:40.477Z,649.74
2023-01-17T10:05:41.262Z,654.18
2023-01-17T10:06:40.940Z,658.21
2023-01-17T10:07:40.567Z,661.83
2023-01-17T10:08:39.902Z,665.65
2023-01-17T10:09:40.279Z,669.63
2023-01-17T10:10:40.680Z,668.27
2023-01-17T10:11:40.102Z,676.58
2023-01-17T10:12:40.315Z,679.38
2023-01-17T10:13:40.680Z,682.09
2023-01-17T10:14:40.000Z,683.17
2023-01-17T10:15:41.331Z,684.77
2023-01-17T10:16:40.787Z,687.09
2023-01-17T10:17:40.045Z,688.97
2023-01-17T10:18:40.405Z,690.32
2023-01-17T10:19:40.679Z,692.49
2023-01-17T10:20:41.026Z,692.46
2023-01-17T10:21:41.371Z,693.22
2023-01-17T10:22:40.365Z,694.64
2023-01-17T10:23:41.086Z,697.44
2023-01-17T10:24:40.497Z,697.03
2023-01-17T10:25:39.817Z,697.43
2023-01-17T10:26:40.188Z,698.51
2023-01-17T10:27:40.570Z,700.86
2023-01-17T10:28:39.880Z,701.32
2023-01-17T10:29:41.201Z,703.29
2023-01-17T10:30:39.615Z,704.55
2023-01-17T10:31:40.885Z,707.34
2023-01-17T10:32:41.235Z,708.27
2023-01-17T10:33:39.688Z,711.05
2023-01-17T10:34:39.980Z,713.85
2023-01-17T10:35:40.343Z,715.60
2023-01-17T10:36:40.607Z,719.22
2023-01-17T10:37:40.011Z,725.02
2023-01-17T10:38:41.441Z,731.59
2023-01-17T10:39:39.702Z,742.39
2023-01-17T10:40:40.046Z,754.90
2023-01-17T10:41:41.371Z,764.92
2023-01-17T10:42:40.671Z,766.86
2023-01-17T10:43:40.189Z,774.62
2023-01-17T10:44:39.474Z,780.58
2023-01-17T10:45:39.778Z,783.14
2023-01-17T10:46:40.100Z,784.19
2023-01-17T10:47:39.491Z,785.44
2023-01-17T10:48:39.794Z,788.34
2023-01-17T10:49:40.175Z,791.94
2023-01-17T10:50:39.530Z,794.99
2023-01-17T10:51:39.842Z,797.54
2023-01-17T10:52:40.230Z,798.83
2023-01-17T10:53:39.554Z,801.78
2023-01-17T10:54:39.929Z,803.41
2023-01-17T10:55:40.273Z,806.62
2023-01-17T10:56:39.560Z,807.14
2023-01-17T10:57:39.917Z,808.01
2023-01-17T10:58:41.198Z,809.39
2023-01-17T10:59:39.547Z,809.72
2023-01-17T11:00:41.128Z,810.19
2023-01-17T11:01:40.349Z,809.78
2023-01-17T11:02:39.611Z,813.76
2023-01-17T11:03:39.951Z,814.67
2023-01-17T11:04:40.184Z,816.18
2023-01-17T11:05:39.572Z,819.17
2023-01-17T11:06:53.316Z,820.19
2023-01-17T11:07:40.912Z,819.99
2023-01-17T11:08:39.557Z,820.03
2023-01-17T11:09:39.904Z,820.50
2023-01-17T11:10:39.228Z,823.64
2023-01-17T11:11:39.582Z,828.00
2023-01-17T11:12:39.932Z,831.33
2023-01-17T11:13:39.224Z,832.10
2023-01-17T11:14:39.643Z,828.92
2023-01-17T11:15:40.065Z,833.08
2023-01-17T11:16:39.260Z,839.90
2023-01-17T11:17:39.673Z,843.44
2023-01-17T11:18:39.031Z,844.22
2023-01-17T11:19:39.395Z,848.35
2023-01-17T11:20:39.659Z,810.89
2023-01-17T11:21:39.028Z,822.21
2023-01-17T11:22:39.365Z,842.77
2023-01-17T11:23:40.060Z,845.64
2023-01-17T11:24:39.090Z,843.47
2023-01-17T11:25:39.413Z,838.40
2023-01-17T11:26:39.765Z,835.07
2023-01-17T11:27:39.102Z,827.70
2023-01-17T11:28:39.475Z,829.13
2023-01-17T11:29:40.042Z,831.76
2023-01-17T11:30:40.129Z,834.90
2023-01-17T11:31:39.498Z,833.08
2023-01-17T11:32:38.821Z,815.66
2023-01-17T11:33:39.174Z,826.16
2023-01-17T11:34:39.675Z,844.46
2023-01-17T11:35:38.976Z,853.20
2023-01-17T11:36:39.230Z,853.89
2023-01-17T11:37:39.581Z,854.28
2023-01-17T11:38:39.869Z,852.37
2023-01-17T11:39:39.261Z,854.40
2023-01-17T11:40:39.704Z,857.75
2023-01-17T11:41:38.957Z,865.92
2023-01-17T11:42:39.323Z,868.90
2023-01-17T11:43:38.679Z,800.12
2023-01-17T11:44:39.020Z,802.22
2023-01-17T11:45:39.364Z,836.83
2023-01-17T11:46:38.758Z,860.75
2023-01-17T11:47:39.055Z,863.52
2023-01-17T11:48:39.394Z,637.24
2023-01-17T11:49:38.730Z,848.34
2023-01-17T11:50:40.043Z,825.81
2023-01-17T11:51:39.481Z,828.37
2023-01-17T11:52:38.768Z,831.42
2023-01-17T11:53:40.054Z,853.38
2023-01-17T11:54:39.477Z,872.57
2023-01-17T11:55:38.794Z,874.35
2023-01-17T11:56:39.142Z,874.00
2023-01-17T11:57:38.479Z,879.05
2023-01-17T11:58:38.795Z,881.97
2023-01-17T11:59:39.151Z,888.00
2023-01-17T12:00:38.453Z,886.23
2023-01-17T12:01:38.815Z,860.19
2023-01-17T12:02:39.168Z,771.38
2023-01-17T12:03:38.454Z,779.59
2023-01-17T12:04:38.831Z,866.43
2023-01-17T12:05:39.181Z,860.62
2023-01-17T12:06:56.047Z,833.04
2023-01-17T12:07:39.856Z,824.15
2023-01-17T12:08:39.180Z,820.15
2023-01-17T12:09:38.503Z,776.67
2023-01-17T12:10:38.887Z,731.62
2023-01-17T12:11:39.221Z,683.13
2023-01-17T12:12:38.533Z,654.58
2023-01-17T12:13:38.910Z,728.33
2023-01-17T12:14:39.209Z,735.47
2023-01-17T12:15:38.578Z,630.60
2023-01-17T12:16:38.910Z,662.06
2023-01-17T12:17:38.206Z,534.63
2023-01-17T12:18:38.565Z,562.57
2023-01-17T12:19:39.027Z,562.34
2023-01-17T12:20:38.206Z,565.03
2023-01-17T12:21:38.281Z,539.20
2023-01-17T12:22:38.591Z,703.90
2023-01-17T12:23:38.924Z,677.00
2023-01-17T12:24:38.218Z,512.71
2023-01-17T12:25:38.707Z,588.03
2023-01-17T12:26:38.851Z,603.06
2023-01-17T12:27:38.154Z,604.21
2023-01-17T12:28:39.411Z,606.79
2023-01-17T12:29:39.755Z,604.49
2023-01-17T12:30:38.113Z,589.15
2023-01-17T12:31:38.537Z,583.12
2023-01-17T12:32:38.760Z,578.55
2023-01-17T12:33:38.062Z,572.63
2023-01-17T12:34:38.401Z,565.30
2023-01-17T12:35:38.856Z,561.18
2023-01-17T12:36:38.158Z,558.43
2023-01-17T12:37:38.468Z,550.19
2023-01-17T12:38:38.755Z,549.88
2023-01-17T12:39:38.080Z,548.77
2023-01-17T12:40:38.384Z,546.70
2023-01-17T12:41:38.749Z,542.60
2023-01-17T12:42:38.079Z,538.88
2023-01-17T12:43:39.555Z,537.43
2023-01-17T12:44:38.858Z,535.20
2023-01-17T12:45:38.170Z,533.82
2023-01-17T12:46:38.579Z,528.57
2023-01-17T12:47:38.836Z,524.11
2023-01-17T12:48:38.346Z,523.32
2023-01-17T12:49:38.519Z,520.82
2023-01-17T12:50:37.797Z,520.60
2023-01-17T12:51:38.180Z,511.93
2023-01-17T12:52:38.519Z,507.07
2023-01-17T12:53:37.825Z,503.78
2023-01-17T12:54:38.171Z,495.61
2023-01-17T12:55:38.865Z,492.04
2023-01-17T12:56:37.829Z,479.16
2023-01-17T12:57:38.203Z,438.02
2023-01-17T12:58:37.770Z,438.86
2023-01-17T12:59:38.110Z,558.99
2023-01-17T13:00:38.527Z,426.99
2023-01-17T13:01:38.005Z,409.73
2023-01-17T13:02:39.124Z,441.82
2023-01-17T13:03:39.453Z,477.29
2023-01-17T13:04:46.870Z,496.23